Time;durP1;ratioP1;P1;durP2;ratioP2;P2;SDS_P1;SDS_P2;PMS_P1;PMS_P2;Temp;Humidity;BMP_temperature;BMP_pressure;BME280_temperature;BME280_humidity;BME280_pressure;Samples;Min_cycle;Max_cycle;Signal;HPM_P1;HPM_P2
2024/03/02 00:00:13;;;;;;;;;64.33;51.00;;;;;-143.90;100.00;75304.53;4945133;28;103506;-72
2024/03/02 00:02:46;;;;;;;;;58.50;47.50;;;;;-143.90;100.00;75304.53;4952133;28;104066;-72
2024/03/02 00:05:16;;;;;;;;;63.33;49.00;;;;;-143.90;100.00;75308.66;4950295;28;105089;-73
2024/03/02 00:07:44;;;;;;;;;66.00;51.33;;;;;-143.90;100.00;75312.81;4949991;28;102472;-73
2024/03/02 00:10:19;;;;;;;;;59.00;43.75;;;;;-143.90;100.00;75331.41;4945441;28;102041;-73
2024/03/02 00:12:48;;;;;;;;;67.00;50.00;;;;;-143.90;100.00;75341.75;4950836;28;108910;-74
2024/03/02 00:15:30;;;;;;;;;64.00;47.00;;;;;-143.90;100.00;75354.16;4949040;28;102650;-73
2024/03/02 00:17:58;;;;;;;;;62.75;43.75;;;;;-143.90;100.00;75354.16;4950075;28;102351;-73
2024/03/02 00:20:27;;;;;;;;;61.00;46.00;;;;;-143.90;100.00;75358.28;4946140;28;104308;-73
2024/03/02 00:23:02;;;;;;;;;68.33;51.33;;;;;-143.90;100.00;75381.03;4948177;28;106562;-73
2024/03/02 00:25:42;;;;;;;;;58.00;44.67;;;;;-143.90;100.00;75366.56;4944397;28;102341;-74
2024/03/02 00:28:18;;;;;;;;;53.00;42.25;;;;;-143.90;100.00;75370.69;4944663;28;102335;-74
2024/03/02 00:30:58;;;;;;;;;54.75;43.00;;;;;-143.90;100.00;75395.50;4953179;28;102289;-74
2024/03/02 00:33:30;;;;;;;;;46.75;38.75;;;;;-143.90;100.00;75393.44;4949415;28;107922;-74
2024/03/02 00:35:57;;;;;;;;;70.33;52.33;;;;;-143.90;100.00;75403.78;4949981;28;102431;-74
2024/03/02 00:38:24;;;;;;;;;76.33;58.33;;;;;-143.90;100.00;75399.63;4944860;28;106940;-74
2024/03/02 00:40:51;;;;;;;;;72.67;56.33;;;;;-143.90;100.00;75389.31;4951445;28;102067;-74
2024/03/02 00:43:24;;;;;;;;;67.33;54.00;;;;;-143.90;100.00;75368.63;4951018;28;103993;-74
2024/03/02 00:45:50;;;;;;;;;76.33;56.33;;;;;-143.90;100.00;75370.69;4949055;28;102324;-73
2024/03/02 00:48:17;;;;;;;;;87.67;62.67;;;;;-143.90;100.00;75366.56;4942346;28;105751;-73
2024/03/02 00:50:44;;;;;;;;;73.67;52.33;;;;;-143.90;100.00;75364.50;4952043;28;102533;-73
2024/03/02 00:53:12;;;;;;;;;57.33;44.00;;;;;-143.90;100.00;75366.56;4951349;28;104400;-73
2024/03/02 00:55:44;;;;;;;;;58.50;43.00;;;;;-143.90;100.00;75370.69;4951474;28;102931;-73
2024/03/02 00:58:10;;;;;;;;;47.00;38.50;;;;;-143.90;100.00;75370.69;4944289;28;101841;-73
2024/03/02 01:00:37;;;;;;;;;53.67;42.67;;;;;-143.90;100.00;75381.03;4950737;28;102336;-74
2024/03/02 01:03:04;;;;;;;;;53.33;43.33;;;;;-143.90;100.00;75383.09;4949453;28;104079;-74
2024/03/02 01:05:31;;;;;;;;;53.75;39.00;;;;;-143.90;100.00;75370.69;4950381;28;102285;-74
2024/03/02 01:07:57;;;;;;;;;43.75;37.50;;;;;-143.90;100.00;75366.56;4948680;28;104108;-74
2024/03/02 01:10:25;;;;;;;;;41.50;33.50;;;;;-143.90;100.00;75358.28;4947433;28;102089;-74
2024/03/02 01:12:52;;;;;;;;;42.75;37.00;;;;;-143.90;100.00;75358.28;4950090;28;104177;-73
2024/03/02 01:15:19;;;;;;;;;44.25;33.75;;;;;-143.90;100.00;75350.03;4952514;28;102079;-73
2024/03/02 01:17:46;;;;;;;;;44.00;38.50;;;;;-143.90;100.00;75356.22;4947736;28;102261;-73
2024/03/02 01:20:12;;;;;;;;;46.50;33.25;;;;;-143.90;100.00;75360.34;4945949;28;103372;-74
2024/03/02 01:22:39;;;;;;;;;30.75;26.75;;;;;-143.90;100.00;75345.88;4949864;28;103995;-73
2024/03/02 01:25:08;;;;;;;;;49.50;40.25;;;;;-143.90;100.00;75360.34;4952007;28;102479;-73
2024/03/02 01:27:35;;;;;;;;;63.67;48.67;;;;;-143.90;100.00;75360.34;4950699;28;102629;-74
2024/03/02 01:30:02;;;;;;;;;62.33;48.33;;;;;-143.90;100.00;75366.56;4949232;28;101990;-73
2024/03/02 01:32:28;;;;;;;;;49.75;40.75;;;;;-143.90;100.00;75345.88;4945247;28;104094;-73
2024/03/02 01:34:56;;;;;;;;;54.00;41.00;;;;;-143.90;100.00;75360.34;4943696;28;102136;-73
2024/03/02 01:37:22;;;;;;;;;52.33;40.33;;;;;-143.90;100.00;75358.28;4945317;28;102212;-73
2024/03/02 01:39:49;;;;;;;;;63.67;48.00;;;;;-143.90;100.00;75366.56;4952053;28;102073;-73
2024/03/02 01:42:16;;;;;;;;;55.25;40.50;;;;;-143.90;100.00;75358.28;4941574;28;108706;-73
2024/03/02 01:44:42;;;;;;;;;56.00;38.75;;;;;-143.90;100.00;75366.56;4949349;28;102025;-73
2024/03/02 01:47:09;;;;;;;;;40.75;37.25;;;;;-143.90;100.00;75372.75;4948003;28;102025;-73
2024/03/02 01:49:38;;;;;;;;;41.75;30.75;;;;;-143.90;100.00;75366.56;4949023;28;103333;-73
2024/03/02 01:52:05;;;;;;;;;40.25;37.25;;;;;-143.90;100.00;75378.97;4940694;28;104146;-73
2024/03/02 01:54:32;;;;;;;;;40.00;31.75;;;;;-143.90;100.00;75387.22;4947709;28;102806;-73
2024/03/02 01:56:59;;;;;;;;;48.00;37.00;;;;;-143.90;100.00;75383.09;4949471;28;104016;-74
2024/03/02 01:59:26;;;;;;;;;36.75;32.00;;;;;-143.90;100.00;75372.75;4947890;28;102018;-73
2024/03/02 02:01:53;;;;;;;;;12.00;8.75;;;;;-143.90;100.00;75370.69;4947730;28;104346;-73
2024/03/02 02:04:26;;;;;;;;;33.00;29.25;;;;;-143.90;100.00;75372.75;4943218;28;102223;-73
2024/03/02 02:06:54;;;;;;;;;28.25;27.00;;;;;-143.90;100.00;75368.63;4944597;28;102402;-73
2024/03/02 02:09:21;;;;;;;;;27.50;22.50;;;;;-143.90;100.00;75374.84;4950465;28;105399;-73
2024/03/02 02:11:47;;;;;;;;;27.75;24.75;;;;;-143.90;100.00;75370.69;4947867;28;109746;-73
2024/03/02 02:14:14;;;;;;;;;26.75;22.00;;;;;-143.90;100.00;75366.56;4942454;28;105024;-73
2024/03/02 02:16:41;;;;;;;;;24.00;20.00;;;;;-143.90;100.00;75387.22;4946209;28;102358;-73
2024/03/02 02:19:09;;;;;;;;;42.00;32.50;;;;;-143.90;100.00;75399.63;4947547;28;101900;-73
2024/03/02 02:21:35;;;;;;;;;37.75;33.50;;;;;-143.90;100.00;75428.59;4946368;28;104081;-73
2024/03/02 02:24:03;;;;;;;;;38.75;32.50;;;;;-143.90;100.00;75428.59;4943320;28;102096;-74
2024/03/02 02:26:30;;;;;;;;;38.00;33.75;;;;;-143.90;100.00;75424.44;4947505;28;102023;-73
2024/03/02 02:28:57;;;;;;;;;33.50;24.75;;;;;-143.90;100.00;75428.59;4947448;28;102946;-74
2024/03/02 02:31:23;;;;;;;;;33.25;30.00;;;;;-143.90;100.00;75416.19;4947380;28;104273;-73
2024/03/02 02:33:50;;;;;;;;;34.75;25.50;;;;;-143.90;100.00;75416.19;4949013;28;102491;-73
2024/03/02 02:36:17;;;;;;;;;32.50;25.75;;;;;-143.90;100.00;75407.91;4938361;28;103548;-73
2024/03/02 02:38:46;;;;;;;;;20.25;16.50;;;;;-143.90;100.00;75409.97;4948341;28;103304;-73
2024/03/02 02:41:13;;;;;;;;;17.50;15.75;;;;;-143.90;100.00;75405.84;4947594;28;104243;-73
2024/03/02 02:43:40;;;;;;;;;22.00;19.00;;;;;-143.90;100.00;75407.91;4947165;28;101957;-73
2024/03/02 02:46:06;;;;;;;;;23.00;16.25;;;;;-143.90;100.00;75405.84;4939481;28;102768;-73
2024/03/02 02:48:33;;;;;;;;;20.00;15.50;;;;;-143.90;100.00;75407.91;4948592;28;102256;-73
2024/03/02 02:51:00;;;;;;;;;43.75;34.50;;;;;-143.90;100.00;75405.84;4947291;28;104076;-73
2024/03/02 02:53:27;;;;;;;;;62.00;45.00;;;;;-143.90;100.00;75416.19;4948809;28;102626;-73
2024/03/02 02:55:53;;;;;;;;;55.33;41.00;;;;;-143.90;100.00;75414.13;4948619;28;102582;-74
2024/03/02 02:58:20;;;;;;;;;59.33;45.33;;;;;-143.90;100.00;75426.50;4942447;28;102845;-73
2024/03/02 03:00:47;;;;;;;;;50.67;41.00;;;;;-143.90;100.00;75412.03;4947934;28;110632;-73
2024/03/02 03:03:14;;;;;;;;;52.67;41.33;;;;;-143.90;100.00;75405.84;4949041;28;105753;-73
2024/03/02 03:05:41;;;;;;;;;56.00;41.00;;;;;-143.90;100.00;75399.63;4948957;28;102302;-73
2024/03/02 03:08:07;;;;;;;;;40.75;34.50;;;;;-143.90;100.00;75391.38;4944519;28;102234;-73
2024/03/02 03:10:34;;;;;;;;;50.50;39.50;;;;;-143.90;100.00;75393.44;4940642;28;104193;-73
2024/03/02 03:13:01;;;;;;;;;51.00;41.00;;;;;-143.90;100.00;75401.72;4948914;28;102051;-73
2024/03/02 03:15:27;;;;;;;;;46.25;37.00;;;;;-143.90;100.00;75407.91;4949420;28;102060;-74
2024/03/02 03:17:54;;;;;;;;;48.50;40.00;;;;;-143.90;100.00;75403.78;4948874;28;102403;-73
2024/03/02 03:20:22;;;;;;;;;15.67;8.00;;;;;-143.90;100.00;75403.78;4939124;28;104044;-74
2024/03/02 03:22:49;;;;;;;;;59.33;46.00;;;;;-143.90;100.00;75407.91;4953813;28;102583;-73
2024/03/02 03:25:15;;;;;;;;;56.33;45.00;;;;;-143.90;100.00;75401.72;4948075;28;102216;-73
2024/03/02 03:27:42;;;;;;;;;63.00;47.67;;;;;-143.90;100.00;75391.38;4949554;28;102089;-73
2024/03/02 03:30:09;;;;;;;;;56.00;45.00;;;;;-143.90;100.00;75391.38;4941895;28;104194;-74
2024/03/02 03:32:36;;;;;;;;;49.33;40.00;;;;;-143.90;100.00;75389.31;4952650;28;102058;-73
2024/03/02 03:35:04;;;;;;;;;58.67;45.00;;;;;-143.90;100.00;75395.50;4950883;28;101893;-73
2024/03/02 03:37:34;;;;;;;;;63.67;50.67;;;;;-143.90;100.00;75397.56;4950506;28;102074;-73
2024/03/02 03:40:02;;;;;;;;;43.25;35.75;;;;;-143.90;100.00;75395.50;4948795;28;104008;-73
2024/03/02 03:42:29;;;;;;;;;35.00;26.75;;;;;-143.90;100.00;75401.72;4951856;28;102434;-73
2024/03/02 03:44:56;;;;;;;;;48.50;37.50;;;;;-143.90;100.00;75414.13;4951345;28;102552;-73
2024/03/02 03:47:23;;;;;;;;;61.33;49.00;;;;;-143.90;100.00;75414.13;4952899;28;104428;-73
2024/03/02 03:49:49;;;;;;;;;63.33;48.33;;;;;-143.90;100.00;75399.63;4954200;28;104688;-73
2024/03/02 03:52:16;;;;;;;;;71.33;51.67;;;;;-143.90;100.00;75403.78;4943504;28;102585;-73
2024/03/02 03:54:44;;;;;;;;;61.67;48.00;;;;;-143.90;100.00;75391.38;4948852;28;101805;-73
2024/03/02 03:57:11;;;;;;;;;57.67;46.33;;;;;-143.90;100.00;75381.03;4951402;28;102247;-73
2024/03/02 03:59:37;;;;;;;;;57.00;41.33;;;;;-143.90;100.00;75362.44;4948642;28;104094;-73
2024/03/02 04:02:04;;;;;;;;;51.50;40.00;;;;;-143.90;100.00;75358.28;4946922;28;102267;-74
2024/03/02 04:04:31;;;;;;;;;48.50;39.00;;;;;-143.90;100.00;75366.56;4951858;28;102563;-73
2024/03/02 04:06:58;;;;;;;;;48.00;37.25;;;;;-143.90;100.00;75362.44;4954619;28;102296;-73
2024/03/02 04:09:25;;;;;;;;;36.50;33.00;;;;;-143.90;100.00;75362.44;4948381;28;104012;-73
2024/03/02 04:11:52;;;;;;;;;41.75;25.50;;;;;-143.90;100.00;75362.44;4933095;28;102170;-73
2024/03/02 04:14:18;;;;;;;;;31.00;25.00;;;;;-143.90;100.00;75366.56;4947416;28;105704;-73
2024/03/02 04:16:45;;;;;;;;;45.25;33.50;;;;;-143.90;100.00;75387.22;4953316;28;104403;-73
2024/03/02 04:19:12;;;;;;;;;16.50;10.75;;;;;-143.90;100.00;75383.09;4950186;28;104143;-73
2024/03/02 04:21:38;;;;;;;;;38.00;33.00;;;;;-143.90;100.00;75385.16;4952288;28;101965;-73
2024/03/02 04:24:05;;;;;;;;;39.75;34.50;;;;;-143.90;100.00;75378.97;4944648;28;102137;-74
2024/03/02 04:26:33;;;;;;;;;37.00;27.00;;;;;-143.90;100.00;75381.03;4952851;28;102290;-73
2024/03/02 04:29:00;;;;;;;;;43.50;36.75;;;;;-143.90;100.00;75391.38;4951179;28;104239;-74
2024/03/02 04:31:26;;;;;;;;;71.00;54.00;;;;;-143.90;100.00;75407.91;4951078;28;102892;-74
2024/03/02 04:33:54;;;;;;;;;49.00;42.00;;;;;-143.90;100.00;75397.56;4952469;28;102261;-74
2024/03/02 04:36:21;;;;;;;;;47.75;40.50;;;;;-143.90;100.00;75399.63;4947647;28;102393;-74
2024/03/02 04:38:50;;;;;;;;;40.50;37.25;;;;;-143.90;100.00;75391.38;4948321;28;108462;-74
2024/03/02 04:41:17;;;;;;;;;53.00;40.67;;;;;-143.90;100.00;75378.97;4951309;28;102115;-74
2024/03/02 04:43:43;;;;;;;;;38.25;34.00;;;;;-143.90;100.00;75366.56;4950273;28;101991;-74
2024/03/02 04:46:10;;;;;;;;;41.25;35.50;;;;;-143.90;100.00;75366.56;4946635;28;102672;-74
2024/03/02 04:48:37;;;;;;;;;42.75;36.50;;;;;-143.90;100.00;75354.16;4948443;28;104283;-74
2024/03/02 04:51:04;;;;;;;;;35.50;26.25;;;;;-143.90;100.00;75352.09;4950147;28;102172;-74
2024/03/02 04:53:31;;;;;;;;;41.00;36.00;;;;;-143.90;100.00;75366.56;4949976;28;102513;-74
2024/03/02 04:56:26;;;;;;;;;62.00;48.00;;;;;-143.90;100.00;75368.63;4950259;28;101984;-74
2024/03/02 04:58:50;;;;;;;;;57.67;44.00;;;;;-143.90;100.00;75368.63;4948779;28;108733;-73
2024/03/02 05:01:17;;;;;;;;;44.00;37.25;;;;;-143.90;100.00;75362.44;4950948;28;102034;-73
2024/03/02 05:03:45;;;;;;;;;43.50;35.00;;;;;-143.90;100.00;75350.03;4949835;28;102314;-73
2024/03/02 05:06:11;;;;;;;;;58.67;45.00;;;;;-143.90;100.00;75362.44;4942073;28;102073;-73
2024/03/02 05:08:38;;;;;;;;;48.00;40.50;;;;;-143.90;100.00;75350.03;4951326;28;104234;-73
2024/03/02 05:13:50;;;;;;;;;32.50;27.75;;;;;-143.90;100.00;75341.75;4950852;28;103269;-73
2024/03/02 05:16:16;;;;;;;;;26.50;21.50;;;;;-143.90;100.00;75335.53;4944113;28;102146;-73
2024/03/02 05:18:43;;;;;;;;;26.75;18.25;;;;;-143.90;100.00;75327.28;4947779;28;104240;-73
2024/03/02 05:21:11;;;;;;;;;30.00;26.75;;;;;-143.90;100.00;75341.75;4948121;28;103091;-73
2024/03/02 05:23:38;;;;;;;;;24.50;22.00;;;;;-143.90;100.00;75341.75;4951662;28;102159;-73
2024/03/02 05:26:05;;;;;;;;;19.00;16.75;;;;;-143.90;100.00;75350.03;4946478;28;103626;-73
2024/03/02 05:28:32;;;;;;;;;29.75;22.75;;;;;-143.90;100.00;75347.94;4949604;28;104356;-73
2024/03/02 05:30:59;;;;;;;;;25.75;22.00;;;;;-143.90;100.00;75354.16;4950693;28;101967;-73
2024/03/02 05:33:26;;;;;;;;;26.75;23.25;;;;;-143.90;100.00;75345.88;4950351;28;101843;-73
2024/03/02 05:35:53;;;;;;;;;25.75;21.75;;;;;-143.90;100.00;75345.88;4954038;28;102057;-74
2024/03/02 05:38:21;;;;;;;;;13.75;12.00;;;;;-143.90;100.00;75341.75;4945577;28;108711;-73
2024/03/02 05:40:51;;;;;;;;;15.50;12.50;;;;;-143.90;100.00;75335.53;4951065;28;102129;-74
2024/03/02 05:43:18;;;;;;;;;20.50;17.50;;;;;-143.90;100.00;75339.69;4950217;28;104411;-74
2024/03/02 05:45:44;;;;;;;;;27.00;24.75;;;;;-143.90;100.00;75341.75;4952221;28;102054;-74
2024/03/02 05:48:11;;;;;;;;;37.00;32.25;;;;;-143.90;100.00;75339.69;4941054;28;104554;-74
2024/03/02 05:50:38;;;;;;;;;42.50;36.25;;;;;-143.90;100.00;75337.63;4937381;28;102100;-74
2024/03/02 05:53:05;;;;;;;;;34.00;28.00;;;;;-143.90;100.00;75333.47;4943920;28;102025;-74
2024/03/02 05:55:31;;;;;;;;;34.25;32.00;;;;;-143.90;100.00;75331.41;4949835;28;102390;-74
2024/03/02 06:00:25;;;;;;;;;34.75;29.00;;;;;-143.90;100.00;75321.06;4952266;28;102138;-74
2024/03/02 06:02:52;;;;;;;;;45.25;35.00;;;;;-143.90;100.00;75327.28;4952545;28;102130;-74
2024/03/02 06:05:19;;;;;;;;;32.75;23.50;;;;;-143.90;100.00;75343.81;4950871;28;102016;-74
2024/03/02 06:07:46;;;;;;;;;40.50;34.50;;;;;-143.90;100.00;75333.47;4949967;28;104347;-74
2024/03/02 06:10:12;;;;;;;;;55.00;39.67;;;;;-143.90;100.00;75323.16;4944023;28;102751;-74
2024/03/02 06:12:40;;;;;;;;;74.67;52.67;;;;;-143.90;100.00;75312.81;4949610;28;105183;-74
2024/03/02 06:15:07;;;;;;;;;69.33;54.00;;;;;-143.90;100.00;75308.66;4949029;28;102086;-74
2024/03/02 06:17:37;;;;;;;;;63.33;51.00;;;;;-143.90;100.00;75302.47;4950279;28;104403;-74
2024/03/02 06:20:04;;;;;;;;;55.67;45.67;;;;;-143.90;100.00;75306.59;4947502;28;102486;-74
2024/03/02 06:22:31;;;;;;;;;66.67;51.67;;;;;-143.90;100.00;75298.34;4949642;28;102233;-74
2024/03/02 06:24:58;;;;;;;;;55.33;44.00;;;;;-143.90;100.00;75292.13;4949292;28;103677;-74
2024/03/02 06:27:24;;;;;;;;;65.50;47.25;;;;;-143.90;100.00;75288.00;4950147;28;104110;-74
2024/03/02 06:29:51;;;;;;;;;47.50;40.25;;;;;-143.90;100.00;75271.47;4951308;28;102187;-74
2024/03/02 06:32:18;;;;;;;;;60.75;44.25;;;;;-143.90;100.00;75273.53;4943718;28;103391;-74
2024/03/02 06:34:44;;;;;;;;;45.25;38.50;;;;;-143.90;100.00;75254.91;4952627;28;105228;-74
2024/03/02 06:37:11;;;;;;;;;43.00;35.75;;;;;-143.90;100.00;75250.78;4948456;28;104011;-74
2024/03/02 06:39:38;;;;;;;;;49.50;41.75;;;;;-143.90;100.00;75238.38;4947985;28;102635;-74
2024/03/02 06:42:05;;;;;;;;;44.25;38.00;;;;;-143.90;100.00;75228.03;4940322;28;101902;-74
2024/03/02 06:44:32;;;;;;;;;46.00;41.75;;;;;-143.90;100.00;75217.69;4950742;28;102274;-74
2024/03/02 06:46:58;;;;;;;;;47.50;38.25;;;;;-143.90;100.00;75209.44;4947884;28;104270;-74
2024/03/02 06:49:25;;;;;;;;;49.25;41.50;;;;;-143.90;100.00;75207.38;4949005;28;102080;-73
2024/03/02 06:51:51;;;;;;;;;56.25;45.75;;;;;-143.90;100.00;75203.22;4951554;28;102461;-74
2024/03/02 06:54:18;;;;;;;;;56.00;42.00;;;;;-143.90;100.00;75188.75;4943328;28;102839;-74
2024/03/02 06:56:45;;;;;;;;;39.75;32.50;;;;;-143.90;100.00;75168.09;4947875;28;104187;-74
2024/03/02 06:59:12;;;;;;;;;41.25;36.75;;;;;-143.90;100.00;75155.69;4948350;28;102642;-73
2024/03/02 07:01:38;;;;;;;;;40.25;33.75;;;;;-143.90;100.00;75139.16;4950000;28;102268;-74
2024/03/02 07:04:06;;;;;;;;;39.25;34.00;;;;;-143.90;100.00;75132.94;4943417;28;102485;-73
2024/03/02 07:06:33;;;;;;;;;58.75;46.50;;;;;-143.90;100.00;75151.53;4949301;28;103967;-74
2024/03/02 07:09:00;;;;;;;;;52.50;42.25;;;;;-143.90;100.00;75122.59;4949019;28;101925;-74
2024/03/02 07:11:26;;;;;;;;;54.75;42.50;;;;;-143.90;100.00;75118.47;4948030;28;103221;-74
2024/03/02 07:13:53;;;;;;;;;54.50;42.75;;;;;-143.90;100.00;75110.19;4951558;28;102134;-74
2024/03/02 07:16:39;;;;;;;;;51.50;42.00;;;;;-143.90;100.00;75095.72;4942900;28;108642;-74
2024/03/02 07:19:06;;;;;;;;;50.50;39.75;;;;;-143.90;100.00;75085.38;4948737;28;102170;-74
2024/03/02 07:21:33;;;;;;;;;49.50;39.00;;;;;-143.90;100.00;75072.97;4948688;28;102889;-73
2024/03/02 07:24:02;;;;;;;;;60.00;46.75;;;;;-143.90;100.00;75089.53;4947642;28;102204;-74
2024/03/02 07:26:31;;;;;;;;;56.00;43.00;;;;;-143.90;100.00;75087.47;4944067;28;105620;-74
2024/03/02 07:29:01;;;;;;;;;66.33;51.33;;;;;-143.90;100.00;75077.13;4945860;28;102395;-74
2024/03/02 07:31:27;;;;;;;;;51.00;38.75;;;;;-143.90;100.00;75068.84;4948188;28;102190;-74
2024/03/02 07:33:54;;;;;;;;;54.50;42.00;;;;;-143.90;100.00;75062.66;4938335;28;102046;-74
2024/03/02 07:36:21;;;;;;;;;41.50;37.25;;;;;-143.90;100.00;75044.03;4941970;28;104107;-74
2024/03/02 07:38:50;;;;;;;;;37.00;34.00;;;;;-143.90;100.00;75031.63;4947129;28;102529;-74
2024/03/02 07:41:17;;;;;;;;;31.00;25.75;;;;;-143.90;100.00;75023.38;4945548;28;102316;-74
2024/03/02 07:43:44;;;;;;;;;52.25;41.00;;;;;-143.90;100.00;75033.72;4948119;28;105704;-74
2024/03/02 07:46:11;;;;;;;;;45.00;37.00;;;;;-143.90;100.00;75015.09;4940608;28;104232;-74
2024/03/02 07:48:38;;;;;;;;;33.50;31.50;;;;;-143.90;100.00;75004.75;4949358;28;102174;-74
2024/03/02 07:51:05;;;;;;;;;32.75;25.00;;;;;-143.90;100.00;74982.03;4949140;28;101938;-74
2024/03/02 07:53:32;;;;;;;;;45.00;38.00;;;;;-143.90;100.00;74994.44;4948493;28;102267;-74
2024/03/02 07:56:02;;;;;;;;;50.75;40.25;;;;;-143.90;100.00;74973.75;4944875;28;104050;-74
2024/03/02 07:58:30;;;;;;;;;48.25;37.75;;;;;-143.90;100.00;74959.28;4944677;28;102325;-74
2024/03/02 08:00:57;;;;;;;;;37.50;34.00;;;;;-143.90;100.00;74932.41;4947540;28;102169;-74
2024/03/02 08:03:24;;;;;;;;;52.25;42.25;;;;;-143.90;100.00;74911.72;4950565;28;102021;-74
2024/03/02 08:05:51;;;;;;;;;51.75;37.50;;;;;-143.90;100.00;74897.25;4946375;28;103975;-74
2024/03/02 08:08:18;;;;;;;;;40.50;35.75;;;;;-143.90;100.00;74878.66;4939952;28;102154;-74
2024/03/02 08:10:45;;;;;;;;;29.25;23.75;;;;;-143.90;100.00;74872.47;4947442;28;102149;-74
2024/03/02 08:13:12;;;;;;;;;27.00;24.75;;;;;-143.90;100.00;74868.31;4948127;28;103243;-74
2024/03/02 08:15:38;;;;;;;;;41.50;38.25;;;;;-143.90;100.00;74903.47;4949544;28;104054;-74
2024/03/02 08:18:05;;;;;;;;;60.75;47.25;;;;;-143.90;100.00;74901.41;4948524;28;102235;-74
2024/03/02 08:20:32;;;;;;;;;48.50;39.50;;;;;-143.90;100.00;74911.72;4947130;28;102099;-74
2024/03/02 08:22:59;;;;;;;;;60.75;47.00;;;;;-143.90;100.00;74928.28;4967035;28;103128;-74
2024/03/02 08:25:25;;;;;;;;;54.00;41.75;;;;;-143.90;100.00;74930.34;4951004;28;104218;-74
2024/03/02 08:27:52;;;;;;;;;51.75;38.75;;;;;-143.90;100.00;74924.13;4954099;28;102283;-74
2024/03/02 08:30:19;;;;;;;;;53.50;42.25;;;;;-143.90;100.00;74942.75;4944217;28;102050;-74
2024/03/02 08:32:47;;;;;;;;;50.25;40.00;;;;;-143.90;100.00;74934.47;4952974;28;102100;-74
2024/03/02 08:35:14;;;;;;;;;48.50;38.50;;;;;-143.90;100.00;74934.47;4948239;28;103976;-74
2024/03/02 08:37:42;;;;;;;;;16.25;12.00;;;;;-143.90;100.00;74948.94;4949020;28;101991;-74
2024/03/02 08:40:09;;;;;;;;;49.25;39.25;;;;;-143.90;100.00;74951.00;4942447;28;102126;-74
2024/03/02 08:42:36;;;;;;;;;39.75;32.50;;;;;-143.90;100.00;74932.41;4951525;28;102419;-74
2024/03/02 08:45:03;;;;;;;;;48.00;38.25;;;;;-143.90;100.00;74920.00;4945204;28;104035;-75
2024/03/02 08:47:30;;;;;;;;;38.00;33.25;;;;;-143.90;100.00;74907.59;4947903;28;102465;-74
2024/03/02 08:49:57;;;;;;;;;31.00;27.50;;;;;-143.90;100.00;74909.66;4946952;28;102288;-75
2024/03/02 08:52:27;;;;;;;;;39.25;35.25;;;;;-143.90;100.00;74905.53;4947609;28;103024;-73
2024/03/02 08:54:54;;;;;;;;;36.75;33.75;;;;;-143.90;100.00;74901.41;4946716;28;104194;-74
2024/03/02 08:57:20;;;;;;;;;35.50;33.75;;;;;-143.90;100.00;74899.34;4949630;28;102181;-74
2024/03/02 08:59:47;;;;;;;;;37.50;27.50;;;;;-143.90;100.00;74889.00;4950068;28;102092;-74
2024/03/02 09:02:14;;;;;;;;;20.00;20.00;;;;;-143.90;100.00;74882.78;4939962;28;102089;-74
2024/03/02 09:04:41;;;;;;;;;21.00;18.00;;;;;-143.90;100.00;74878.66;4948219;28;104185;-74
2024/03/02 09:07:08;;;;;;;;;15.75;14.75;;;;;-143.90;100.00;74870.38;4946560;28;102450;-74
2024/03/02 09:09:34;;;;;;;;;24.75;22.00;;;;;-143.90;100.00;74862.13;4948678;28;102605;-74
2024/03/02 09:12:01;;;;;;;;;21.50;20.00;;;;;-143.90;100.00;74853.84;4945396;28;102239;-74
2024/03/02 09:14:28;;;;;;;;;26.50;23.00;;;;;-143.90;100.00;74853.84;4941561;28;106812;-74
2024/03/02 09:16:55;;;;;;;;;18.50;15.00;;;;;-143.90;100.00;74853.84;4947834;28;102317;-75
2024/03/02 09:19:21;;;;;;;;;22.00;18.00;;;;;-143.90;100.00;74843.53;4948017;28;102615;-74
2024/03/02 09:21:48;;;;;;;;;16.25;15.50;;;;;-143.90;100.00;74839.38;4945536;28;102007;-74
2024/03/02 09:24:15;;;;;;;;;28.50;27.00;;;;;-143.90;100.00;74843.53;4940918;28;104083;-74
2024/03/02 09:26:44;;;;;;;;;29.00;28.00;;;;;-143.90;100.00;74851.78;4947098;28;102520;-74
2024/03/02 09:29:11;;;;;;;;;38.50;30.25;;;;;-143.90;100.00;74841.44;4948069;28;102555;-74
2024/03/02 09:31:41;;;;;;;;;28.50;26.75;;;;;-143.90;100.00;74841.44;4949839;28;102372;-74
2024/03/02 09:34:08;;;;;;;;;34.50;30.50;;;;;-143.90;100.00;74845.59;4940369;28;105887;-74
2024/03/02 09:36:35;;;;;;;;;34.50;31.25;;;;;-143.90;100.00;74845.59;4948700;28;104485;-74
2024/03/02 09:39:03;;;;;;;;;53.25;44.00;;;;;-143.90;100.00;74870.38;4950186;28;102277;-74
2024/03/02 09:41:32;;;;;;;;;55.00;43.25;;;;;-143.90;100.00;74860.06;4949109;28;101883;-74
2024/03/02 09:43:59;;;;;;;;;43.75;38.50;;;;;-143.90;100.00;74841.44;4947680;28;104055;-74
2024/03/02 09:46:26;;;;;;;;;39.50;34.25;;;;;-143.90;100.00;74824.91;4945631;28;102256;-74
2024/03/02 09:48:53;;;;;;;;;55.50;44.75;;;;;-143.90;100.00;74843.53;4951023;28;102559;-74
2024/03/02 09:51:20;;;;;;;;;66.50;52.50;;;;;-143.90;100.00;74882.78;4949788;28;102509;-74
2024/03/02 09:53:48;;;;;;;;;66.00;49.75;;;;;-143.90;100.00;74884.88;4949450;28;104355;-74
2024/03/02 09:56:18;;;;;;;;;57.00;45.25;;;;;-143.90;100.00;74858.00;4943353;28;105550;-74
2024/03/02 09:58:45;;;;;;;;;46.00;37.25;;;;;-143.90;100.00;74843.53;4950082;28;102031;-74
2024/03/02 10:01:11;;;;;;;;;31.50;25.00;;;;;-143.90;100.00;74835.25;4949552;28;102085;-75
2024/03/02 10:03:39;;;;;;;;;42.50;33.50;;;;;-143.90;100.00;74826.97;4947565;28;106481;-74
2024/03/02 10:06:41;;;;;;;;;33.00;31.25;;;;;-143.90;100.00;74806.31;4943081;28;102741;-74
2024/03/02 10:09:08;;;;;;;;;23.75;22.00;;;;;-143.90;100.00;74793.91;4913010;28;102212;-74
2024/03/02 10:11:37;;;;;;;;;30.25;29.25;;;;;-143.90;100.00;74787.69;4949996;28;103209;-74
2024/03/02 10:14:08;;;;;;;;;14.25;10.75;;;;;-143.90;100.00;74781.50;4943915;28;104048;-73
2024/03/02 10:16:40;;;;;;;;;19.00;17.00;;;;;-143.90;100.00;74771.16;4948333;28;102055;-73
2024/03/02 10:19:20;;;;;;;;;25.00;20.75;;;;;-143.90;100.00;74760.81;4947760;28;102195;-74
2024/03/02 10:21:49;;;;;;;;;14.75;13.50;;;;;-143.90;100.00;74767.03;4950141;28;102355;-74
2024/03/02 10:24:17;;;;;;;;;20.00;15.25;;;;;-143.90;100.00;74769.09;4942990;28;104042;-74
2024/03/02 10:26:44;;;;;;;;;18.25;16.25;;;;;-143.90;100.00;74764.97;4946399;28;101888;-74
2024/03/02 10:29:11;;;;;;;;;12.25;11.25;;;;;-143.90;100.00;74758.75;4945893;28;102553;-74
2024/03/02 10:31:40;;;;;;;;;15.00;14.25;;;;;-143.90;100.00;74767.03;4947965;28;102497;-74
2024/03/02 10:34:08;;;;;;;;;19.25;13.75;;;;;-143.90;100.00;74760.81;4925727;28;104179;-74
2024/03/02 10:36:35;;;;;;;;;15.50;15.50;;;;;-143.90;100.00;74754.63;4950270;28;102461;-75
2024/03/02 10:39:06;;;;;;;;;14.75;12.00;;;;;-143.90;100.00;74748.44;4948988;28;102277;-75
2024/03/02 10:41:35;;;;;;;;;15.50;11.50;;;;;-143.90;100.00;74754.63;4951320;28;101920;-74
2024/03/02 10:44:03;;;;;;;;;12.00;12.00;;;;;-143.90;100.00;74740.16;4945356;28;104080;-74
2024/03/02 10:46:32;;;;;;;;;15.00;13.25;;;;;-143.90;100.00;74733.97;4945837;28;102378;-75
2024/03/02 10:49:03;;;;;;;;;10.25;9.00;;;;;-143.90;100.00;74721.56;4949654;28;102102;-73
2024/03/02 10:51:36;;;;;;;;;16.00;12.50;;;;;-143.90;100.00;74713.28;4950331;28;101965;-74
2024/03/02 10:54:04;;;;;;;;;17.00;15.00;;;;;-143.90;100.00;74713.28;4943755;28;104008;-75